Cairns Airport Weather forecast (YBCS)

METAR

TTF METAR YBCS 191630Z 18010KT 9999 FEW008 SCT025 BKN055 21/19 Q1016 RMK RF00.0/002.6 NOSIG

TAF

TAF AMD YBCS 191531Z 1916/2012 16008KT 9999 -SHRA SCT020 BKN050 FM200000 13012KT 9999 FEW025 BKN060 FM200800 16008KT 9999 FEW025 RMK T 22 21 23 27 Q 1016 1016 1018 1017

QNH 

1016

Temperature & Dew Point

12° DP19